sensor_id;sensor_type;location;lat;lon;timestamp;pressure;altitude;pressure_sealevel;temperature;humidity
58769;BME280;44536;47.474;19.056;2023-04-24T00:01:23;99734.53;;;12.74;59.59
58769;BME280;44536;47.474;19.056;2023-04-24T00:04:25;99729.22;;;12.74;59.33
58769;BME280;44536;47.474;19.056;2023-04-24T00:07:29;99724.63;;;12.67;61.52
58769;BME280;44536;47.474;19.056;2023-04-24T00:10:31;99726.16;;;12.69;60.49
58769;BME280;44536;47.474;19.056;2023-04-24T00:13:34;99730.50;;;12.70;62.66
58769;BME280;44536;47.474;19.056;2023-04-24T00:16:36;99727.25;;;12.76;60.30
58769;BME280;44536;47.474;19.056;2023-04-24T00:19:39;99729.88;;;12.86;58.58
58769;BME280;44536;47.474;19.056;2023-04-24T00:22:42;99733.50;;;12.95;58.59
58769;BME280;44536;47.474;19.056;2023-04-24T00:25:44;99743.38;;;13.02;57.68
58769;BME280;44536;47.474;19.056;2023-04-24T00:28:47;99738.59;;;13.06;58.56
58769;BME280;44536;47.474;19.056;2023-04-24T00:31:49;99737.03;;;13.13;61.29
58769;BME280;44536;47.474;19.056;2023-04-24T00:34:52;99731.69;;;13.22;59.43
58769;BME280;44536;47.474;19.056;2023-04-24T00:37:54;99726.25;;;13.42;56.10
58769;BME280;44536;47.474;19.056;2023-04-24T00:40:57;99724.19;;;13.53;55.30
58769;BME280;44536;47.474;19.056;2023-04-24T00:43:59;99724.13;;;13.45;57.87
58769;BME280;44536;47.474;19.056;2023-04-24T00:47:02;99721.66;;;13.34;58.16
58769;BME280;44536;47.474;19.056;2023-04-24T00:50:05;99716.78;;;13.30;58.25
58769;BME280;44536;47.474;19.056;2023-04-24T00:53:09;99723.50;;;13.34;59.68
58769;BME280;44536;47.474;19.056;2023-04-24T00:56:11;99709.94;;;13.27;58.50
58769;BME280;44536;47.474;19.056;2023-04-24T00:59:16;99709.56;;;13.22;59.13
58769;BME280;44536;47.474;19.056;2023-04-24T01:02:19;99704.41;;;13.11;58.48
58769;BME280;44536;47.474;19.056;2023-04-24T01:05:22;99704.84;;;13.06;59.65
58769;BME280;44536;47.474;19.056;2023-04-24T01:08:26;99709.41;;;12.96;59.55
58769;BME280;44536;47.474;19.056;2023-04-24T01:11:29;99719.78;;;12.89;58.89
58769;BME280;44536;47.474;19.056;2023-04-24T01:14:32;99713.34;;;12.92;59.27
58769;BME280;44536;47.474;19.056;2023-04-24T01:17:35;99721.63;;;12.89;59.28
58769;BME280;44536;47.474;19.056;2023-04-24T01:20:40;99706.81;;;13.04;60.01
58769;BME280;44536;47.474;19.056;2023-04-24T01:23:44;99707.66;;;13.32;56.67
58769;BME280;44536;47.474;19.056;2023-04-24T01:26:47;99698.34;;;13.46;55.37
58769;BME280;44536;47.474;19.056;2023-04-24T01:29:49;99706.97;;;13.30;56.45
58769;BME280;44536;47.474;19.056;2023-04-24T01:32:53;99704.53;;;13.19;57.88
58769;BME280;44536;47.474;19.056;2023-04-24T01:35:57;99700.34;;;13.07;57.83
58769;BME280;44536;47.474;19.056;2023-04-24T01:39:00;99698.44;;;13.27;57.18
58769;BME280;44536;47.474;19.056;2023-04-24T01:42:04;99688.72;;;13.35;56.44
58769;BME280;44536;47.474;19.056;2023-04-24T01:45:09;99684.41;;;13.34;56.83
58769;BME280;44536;47.474;19.056;2023-04-24T01:48:13;99684.31;;;13.44;56.58
58769;BME280;44536;47.474;19.056;2023-04-24T01:51:15;99671.31;;;13.41;57.87
58769;BME280;44536;47.474;19.056;2023-04-24T01:54:18;99660.03;;;13.02;63.35
58769;BME280;44536;47.474;19.056;2023-04-24T01:57:20;99659.03;;;12.48;69.18
58769;BME280;44536;47.474;19.056;2023-04-24T02:00:23;99652.94;;;11.91;78.40
58769;BME280;44536;47.474;19.056;2023-04-24T02:03:26;99649.87;;;11.38;83.32
58769;BME280;44536;47.474;19.056;2023-04-24T02:06:30;99637.41;;;11.19;84.63
58769;BME280;44536;47.474;19.056;2023-04-24T02:09:35;99643.84;;;11.16;83.14
58769;BME280;44536;47.474;19.056;2023-04-24T02:12:37;99633.75;;;10.91;87.84
58769;BME280;44536;47.474;19.056;2023-04-24T02:15:40;99631.66;;;10.85;93.66
58769;BME280;44536;47.474;19.056;2023-04-24T02:18:42;99619.66;;;10.90;90.32
58769;BME280;44536;47.474;19.056;2023-04-24T02:21:44;99624.09;;;10.80;92.01
58769;BME280;44536;47.474;19.056;2023-04-24T02:24:47;99626.06;;;10.88;93.51
58769;BME280;44536;47.474;19.056;2023-04-24T02:27:50;99619.06;;;10.97;92.18
58769;BME280;44536;47.474;19.056;2023-04-24T02:30:52;99623.41;;;10.88;92.36
58769;BME280;44536;47.474;19.056;2023-04-24T02:33:56;99610.56;;;10.93;95.30
58769;BME280;44536;47.474;19.056;2023-04-24T02:36:59;99617.53;;;10.94;93.61
58769;BME280;44536;47.474;19.056;2023-04-24T02:40:01;99625.22;;;10.97;96.55
58769;BME280;44536;47.474;19.056;2023-04-24T02:43:04;99618.41;;;11.04;94.03
58769;BME280;44536;47.474;19.056;2023-04-24T02:46:06;99617.16;;;11.08;96.14
58769;BME280;44536;47.474;19.056;2023-04-24T02:49:09;99615.34;;;11.09;94.69
58769;BME280;44536;47.474;19.056;2023-04-24T02:52:11;99609.63;;;11.23;97.66
58769;BME280;44536;47.474;19.056;2023-04-24T02:55:13;99604.47;;;11.31;97.24
58769;BME280;44536;47.474;19.056;2023-04-24T02:58:16;99614.53;;;11.37;99.04
58769;BME280;44536;47.474;19.056;2023-04-24T03:01:19;99606.53;;;11.47;97.11
58769;BME280;44536;47.474;19.056;2023-04-24T03:04:22;99606.25;;;11.50;97.30
58769;BME280;44536;47.474;19.056;2023-04-24T03:07:24;99598.84;;;11.44;91.46
58769;BME280;44536;47.474;19.056;2023-04-24T03:10:27;99600.94;;;11.50;94.19
58769;BME280;44536;47.474;19.056;2023-04-24T03:13:29;99603.31;;;11.53;92.17
58769;BME280;44536;47.474;19.056;2023-04-24T03:16:32;99592.13;;;11.69;94.31
58769;BME280;44536;47.474;19.056;2023-04-24T03:19:35;99597.56;;;11.67;89.51
58769;BME280;44536;47.474;19.056;2023-04-24T03:22:38;99602.06;;;11.86;87.09
58769;BME280;44536;47.474;19.056;2023-04-24T03:25:40;99600.66;;;11.91;84.51
58769;BME280;44536;47.474;19.056;2023-04-24T03:28:45;99608.31;;;11.95;84.64
58769;BME280;44536;47.474;19.056;2023-04-24T03:31:47;99604.84;;;11.94;85.13
58769;BME280;44536;47.474;19.056;2023-04-24T03:34:50;99598.91;;;12.00;82.67
58769;BME280;44536;47.474;19.056;2023-04-24T03:37:52;99591.09;;;11.99;85.13
58769;BME280;44536;47.474;19.056;2023-04-24T03:40:58;99590.25;;;11.98;85.25
58769;BME280;44536;47.474;19.056;2023-04-24T03:44:02;99587.75;;;11.97;85.32
58769;BME280;44536;47.474;19.056;2023-04-24T03:47:05;99590.44;;;11.87;87.06
58769;BME280;44536;47.474;19.056;2023-04-24T03:50:08;99605.81;;;11.74;87.94
58769;BME280;44536;47.474;19.056;2023-04-24T03:53:13;99597.59;;;11.77;87.90
58769;BME280;44536;47.474;19.056;2023-04-24T03:56:16;99596.31;;;11.71;88.16
58769;BME280;44536;47.474;19.056;2023-04-24T03:59:18;99591.44;;;11.86;88.53
58769;BME280;44536;47.474;19.056;2023-04-24T04:02:27;99584.56;;;11.93;88.98
58769;BME280;44536;47.474;19.056;2023-04-24T04:05:30;99580.88;;;12.04;86.33
58769;BME280;44536;47.474;19.056;2023-04-24T04:08:32;99577.84;;;11.89;87.04
58769;BME280;44536;47.474;19.056;2023-04-24T04:11:36;99584.72;;;11.91;85.73
58769;BME280;44536;47.474;19.056;2023-04-24T04:14:38;99580.22;;;11.92;87.91
58769;BME280;44536;47.474;19.056;2023-04-24T04:17:41;99587.03;;;12.04;88.04
58769;BME280;44536;47.474;19.056;2023-04-24T04:20:45;99584.06;;;12.07;86.50
58769;BME280;44536;47.474;19.056;2023-04-24T04:23:47;99596.31;;;12.27;84.77
58769;BME280;44536;47.474;19.056;2023-04-24T04:26:51;99608.62;;;12.29;87.58
58769;BME280;44536;47.474;19.056;2023-04-24T04:29:54;99602.19;;;12.31;87.61
58769;BME280;44536;47.474;19.056;2023-04-24T04:32:59;99594.94;;;12.51;88.98
58769;BME280;44536;47.474;19.056;2023-04-24T04:36:02;99587.56;;;12.72;82.87
58769;BME280;44536;47.474;19.056;2023-04-24T04:39:06;99582.63;;;12.77;80.82
58769;BME280;44536;47.474;19.056;2023-04-24T04:42:13;99592.56;;;12.75;81.16
58769;BME280;44536;47.474;19.056;2023-04-24T04:45:16;99595.72;;;12.61;84.39
58769;BME280;44536;47.474;19.056;2023-04-24T04:48:21;99594.63;;;12.54;86.94
58769;BME280;44536;47.474;19.056;2023-04-24T04:51:24;99588.47;;;12.53;82.81
58769;BME280;44536;47.474;19.056;2023-04-24T04:54:27;99583.81;;;12.65;82.56
58769;BME280;44536;47.474;19.056;2023-04-24T04:57:30;99574.94;;;12.74;82.88
58769;BME280;44536;47.474;19.056;2023-04-24T05:00:33;99572.03;;;12.68;83.01
58769;BME280;44536;47.474;19.056;2023-04-24T05:03:40;99574.69;;;12.68;81.56
58769;BME280;44536;47.474;19.056;2023-04-24T05:06:45;99575.00;;;12.65;81.04
58769;BME280;44536;47.474;19.056;2023-04-24T05:09:50;99578.34;;;12.67;82.22
58769;BME280;44536;47.474;19.056;2023-04-24T05:12:54;99580.41;;;12.73;80.81
58769;BME280;44536;47.474;19.056;2023-04-24T05:15:57;99580.16;;;12.66;81.30
58769;BME280;44536;47.474;19.056;2023-04-24T05:19:00;99574.81;;;12.93;80.21
58769;BME280;44536;47.474;19.056;2023-04-24T05:22:03;99576.25;;;13.06;78.09
58769;BME280;44536;47.474;19.056;2023-04-24T05:25:09;99569.78;;;13.08;77.64
58769;BME280;44536;47.474;19.056;2023-04-24T05:28:13;99573.13;;;13.10;78.92
58769;BME280;44536;47.474;19.056;2023-04-24T05:31:15;99564.88;;;13.31;77.55
58769;BME280;44536;47.474;19.056;2023-04-24T05:34:20;99576.66;;;13.29;77.63
58769;BME280;44536;47.474;19.056;2023-04-24T05:37:24;99578.94;;;13.41;77.41
58769;BME280;44536;47.474;19.056;2023-04-24T05:40:26;99580.84;;;13.31;77.53
58769;BME280;44536;47.474;19.056;2023-04-24T05:43:28;99589.75;;;13.40;79.45
58769;BME280;44536;47.474;19.056;2023-04-24T05:46:30;99588.06;;;13.39;77.24
58769;BME280;44536;47.474;19.056;2023-04-24T05:49:33;99590.59;;;13.84;75.16
58769;BME280;44536;47.474;19.056;2023-04-24T05:52:35;99589.37;;;13.78;76.18
58769;BME280;44536;47.474;19.056;2023-04-24T05:55:39;99589.03;;;13.55;76.50
58769;BME280;44536;47.474;19.056;2023-04-24T05:58:42;99593.38;;;13.56;77.24
58769;BME280;44536;47.474;19.056;2023-04-24T06:01:44;99589.53;;;13.51;76.85
58769;BME280;44536;47.474;19.056;2023-04-24T06:04:48;99589.16;;;13.72;79.64
58769;BME280;44536;47.474;19.056;2023-04-24T06:07:52;99588.72;;;14.10;76.32
58769;BME280;44536;47.474;19.056;2023-04-24T06:10:55;99588.22;;;14.41;72.67
58769;BME280;44536;47.474;19.056;2023-04-24T06:13:59;99600.50;;;14.25;74.21
58769;BME280;44536;47.474;19.056;2023-04-24T06:17:05;99592.81;;;14.22;75.80
58769;BME280;44536;47.474;19.056;2023-04-24T06:20:08;99604.50;;;14.55;73.07
58769;BME280;44536;47.474;19.056;2023-04-24T06:23:11;99607.78;;;14.92;72.50
58769;BME280;44536;47.474;19.056;2023-04-24T06:26:13;99603.72;;;15.62;68.61
58769;BME280;44536;47.474;19.056;2023-04-24T06:29:17;99600.31;;;15.11;71.81
58769;BME280;44536;47.474;19.056;2023-04-24T06:32:19;99607.66;;;14.25;73.19
58769;BME280;44536;47.474;19.056;2023-04-24T06:35:22;99605.13;;;13.89;75.94
58769;BME280;44536;47.474;19.056;2023-04-24T06:38:25;99604.06;;;13.82;79.68
58769;BME280;44536;47.474;19.056;2023-04-24T06:41:28;99600.81;;;13.71;80.13
58769;BME280;44536;47.474;19.056;2023-04-24T06:44:31;99598.97;;;13.71;81.15
58769;BME280;44536;47.474;19.056;2023-04-24T06:47:33;99591.91;;;13.62;82.21
58769;BME280;44536;47.474;19.056;2023-04-24T06:50:35;99597.37;;;13.78;82.25
58769;BME280;44536;47.474;19.056;2023-04-24T06:53:38;99597.41;;;14.12;80.86
58769;BME280;44536;47.474;19.056;2023-04-24T06:56:41;99599.44;;;14.18;79.65
58769;BME280;44536;47.474;19.056;2023-04-24T06:59:44;99588.31;;;14.49;77.58
58769;BME280;44536;47.474;19.056;2023-04-24T07:02:46;99588.81;;;14.52;76.40
58769;BME280;44536;47.474;19.056;2023-04-24T07:05:49;99594.63;;;14.56;76.61
58769;BME280;44536;47.474;19.056;2023-04-24T07:08:52;99590.31;;;14.47;77.85
58769;BME280;44536;47.474;19.056;2023-04-24T07:11:56;99582.31;;;15.05;75.45
58769;BME280;44536;47.474;19.056;2023-04-24T07:14:58;99591.88;;;14.74;75.63
58769;BME280;44536;47.474;19.056;2023-04-24T07:18:01;99585.72;;;14.73;78.67
58769;BME280;44536;47.474;19.056;2023-04-24T07:21:07;99591.78;;;14.92;75.90
58769;BME280;44536;47.474;19.056;2023-04-24T07:24:09;99599.03;;;14.65;76.57
58769;BME280;44536;47.474;19.056;2023-04-24T07:27:12;99600.03;;;14.72;79.89
58769;BME280;44536;47.474;19.056;2023-04-24T07:30:17;99591.88;;;14.74;79.64
58769;BME280;44536;47.474;19.056;2023-04-24T07:33:19;99592.78;;;14.90;76.76
58769;BME280;44536;47.474;19.056;2023-04-24T07:36:22;99589.31;;;15.22;76.16
58769;BME280;44536;47.474;19.056;2023-04-24T07:39:26;99580.13;;;15.25;75.92
58769;BME280;44536;47.474;19.056;2023-04-24T07:42:29;99579.13;;;15.02;76.66
58769;BME280;44536;47.474;19.056;2023-04-24T07:45:36;99590.47;;;15.12;77.26
58769;BME280;44536;47.474;19.056;2023-04-24T07:48:39;99582.78;;;15.17;76.17
58769;BME280;44536;47.474;19.056;2023-04-24T07:51:42;99587.66;;;15.38;76.03
58769;BME280;44536;47.474;19.056;2023-04-24T07:54:44;99590.53;;;15.61;74.85
58769;BME280;44536;47.474;19.056;2023-04-24T07:57:46;99590.84;;;15.41;75.92
58769;BME280;44536;47.474;19.056;2023-04-24T08:00:49;99596.19;;;15.49;75.47
58769;BME280;44536;47.474;19.056;2023-04-24T08:03:55;99600.38;;;15.93;75.95
58769;BME280;44536;47.474;19.056;2023-04-24T08:06:59;99595.50;;;15.96;74.79
58769;BME280;44536;47.474;19.056;2023-04-24T08:10:02;99585.72;;;16.75;71.62
58769;BME280;44536;47.474;19.056;2023-04-24T08:13:04;99579.94;;;17.17;68.43
58769;BME280;44536;47.474;19.056;2023-04-24T08:16:07;99573.22;;;16.98;66.99
58769;BME280;44536;47.474;19.056;2023-04-24T08:19:09;99579.66;;;17.12;66.67
58769;BME280;44536;47.474;19.056;2023-04-24T08:22:12;99578.75;;;17.19;66.99
58769;BME280;44536;47.474;19.056;2023-04-24T08:25:14;99572.56;;;17.65;65.50
58769;BME280;44536;47.474;19.056;2023-04-24T08:28:17;99581.97;;;17.38;65.71
58769;BME280;44536;47.474;19.056;2023-04-24T08:31:22;99585.72;;;17.29;66.61
58769;BME280;44536;47.474;19.056;2023-04-24T08:34:25;99581.13;;;16.92;66.91
58769;BME280;44536;47.474;19.056;2023-04-24T08:37:27;99578.88;;;17.26;66.63
58769;BME280;44536;47.474;19.056;2023-04-24T08:40:32;99586.12;;;17.63;64.91
58769;BME280;44536;47.474;19.056;2023-04-24T08:43:36;99578.28;;;17.62;63.86
58769;BME280;44536;47.474;19.056;2023-04-24T08:46:39;99574.56;;;18.00;63.39
58769;BME280;44536;47.474;19.056;2023-04-24T08:49:42;99581.31;;;18.26;61.23
58769;BME280;44536;47.474;19.056;2023-04-24T08:52:46;99575.59;;;17.39;63.47
58769;BME280;44536;47.474;19.056;2023-04-24T08:55:49;99578.66;;;18.11;62.03
58769;BME280;44536;47.474;19.056;2023-04-24T08:58:54;99577.06;;;18.46;59.60
58769;BME280;44536;47.474;19.056;2023-04-24T09:01:57;99575.97;;;18.26;60.65
58769;BME280;44536;47.474;19.056;2023-04-24T09:05:00;99569.75;;;17.96;60.79
58769;BME280;44536;47.474;19.056;2023-04-24T09:08:03;99563.19;;;17.98;60.78
58769;BME280;44536;47.474;19.056;2023-04-24T09:11:07;99572.22;;;18.85;58.88
58769;BME280;44536;47.474;19.056;2023-04-24T09:14:10;99566.84;;;18.85;58.04
58769;BME280;44536;47.474;19.056;2023-04-24T09:17:13;99568.91;;;18.25;59.80
58769;BME280;44536;47.474;19.056;2023-04-24T09:20:16;99564.50;;;18.97;57.78
58769;BME280;44536;47.474;19.056;2023-04-24T09:23:18;99555.53;;;19.33;56.91
58769;BME280;44536;47.474;19.056;2023-04-24T09:26:21;99556.84;;;19.15;55.92
58769;BME280;44536;47.474;19.056;2023-04-24T09:29:25;99557.75;;;19.23;56.06
58769;BME280;44536;47.474;19.056;2023-04-24T09:32:27;99545.59;;;20.04;54.72
58769;BME280;44536;47.474;19.056;2023-04-24T09:35:32;99548.59;;;20.57;53.56
58769;BME280;44536;47.474;19.056;2023-04-24T09:38:36;99549.25;;;19.96;53.15
58769;BME280;44536;47.474;19.056;2023-04-24T09:41:50;99539.94;;;20.74;50.96
58769;BME280;44536;47.474;19.056;2023-04-24T09:44:53;99542.72;;;21.07;50.70
58769;BME280;44536;47.474;19.056;2023-04-24T09:48:11;99540.91;;;21.87;49.33
58769;BME280;44536;47.474;19.056;2023-04-24T09:51:13;99537.38;;;21.93;46.61
58769;BME280;44536;47.474;19.056;2023-04-24T09:54:21;99528.87;;;22.61;45.84
58769;BME280;44536;47.474;19.056;2023-04-24T09:57:24;99529.91;;;22.08;47.16
58769;BME280;44536;47.474;19.056;2023-04-24T10:00:31;99523.94;;;20.60;49.16
58769;BME280;44536;47.474;19.056;2023-04-24T10:03:34;99517.72;;;20.59;49.88
58769;BME280;44536;47.474;19.056;2023-04-24T10:06:37;99521.19;;;20.46;50.55
58769;BME280;44536;47.474;19.056;2023-04-24T10:09:40;99518.66;;;21.06;49.16
58769;BME280;44536;47.474;19.056;2023-04-24T10:12:44;99525.66;;;20.74;50.54
58769;BME280;44536;47.474;19.056;2023-04-24T10:15:47;99525.31;;;20.08;51.26
58769;BME280;44536;47.474;19.056;2023-04-24T10:18:51;99524.19;;;20.71;51.83
58769;BME280;44536;47.474;19.056;2023-04-24T10:21:54;99525.28;;;20.97;49.78
58769;BME280;44536;47.474;19.056;2023-04-24T10:24:58;99524.59;;;20.81;48.85
58769;BME280;44536;47.474;19.056;2023-04-24T10:28:02;99525.88;;;20.79;48.48
58769;BME280;44536;47.474;19.056;2023-04-24T10:31:04;99515.06;;;20.66;47.87
58769;BME280;44536;47.474;19.056;2023-04-24T10:34:09;99515.94;;;19.97;48.83
58769;BME280;44536;47.474;19.056;2023-04-24T10:37:12;99517.47;;;20.13;49.89
58769;BME280;44536;47.474;19.056;2023-04-24T10:40:18;99514.00;;;19.84;51.04
58769;BME280;44536;47.474;19.056;2023-04-24T10:43:28;99516.53;;;20.34;50.58
58769;BME280;44536;47.474;19.056;2023-04-24T10:46:30;99514.97;;;20.46;50.74
58769;BME280;44536;47.474;19.056;2023-04-24T10:49:33;99514.03;;;20.67;50.11
58769;BME280;44536;47.474;19.056;2023-04-24T10:52:46;99514.50;;;21.03;49.00
58769;BME280;44536;47.474;19.056;2023-04-24T10:55:50;99510.22;;;21.22;48.22
58769;BME280;44536;47.474;19.056;2023-04-24T10:58:53;99507.34;;;20.56;50.00
58769;BME280;44536;47.474;19.056;2023-04-24T11:01:55;99513.31;;;20.10;52.97
58769;BME280;44536;47.474;19.056;2023-04-24T11:05:03;99511.06;;;20.55;51.77
58769;BME280;44536;47.474;19.056;2023-04-24T11:11:17;99496.56;;;20.49;53.16
58769;BME280;44536;47.474;19.056;2023-04-24T11:14:20;99495.84;;;21.88;49.99
58769;BME280;44536;47.474;19.056;2023-04-24T11:17:35;99495.41;;;22.10;47.21
58769;BME280;44536;47.474;19.056;2023-04-24T11:20:46;99491.53;;;21.67;48.21
58769;BME280;44536;47.474;19.056;2023-04-24T11:23:49;99485.53;;;22.36;46.50
58769;BME280;44536;47.474;19.056;2023-04-24T11:30:01;99487.19;;;21.33;48.12
58769;BME280;44536;47.474;19.056;2023-04-24T11:33:05;99480.72;;;21.07;49.13
58769;BME280;44536;47.474;19.056;2023-04-24T11:36:08;99482.41;;;21.15;51.65
58769;BME280;44536;47.474;19.056;2023-04-24T11:39:11;99484.75;;;22.35;46.77
58769;BME280;44536;47.474;19.056;2023-04-24T11:42:15;99483.25;;;21.55;49.00
58769;BME280;44536;47.474;19.056;2023-04-24T11:45:20;99482.37;;;21.81;47.72
58769;BME280;44536;47.474;19.056;2023-04-24T11:48:23;99470.66;;;22.27;46.96
58769;BME280;44536;47.474;19.056;2023-04-24T11:51:27;99469.34;;;23.62;45.08
58769;BME280;44536;47.474;19.056;2023-04-24T11:54:37;99469.00;;;22.26;46.93
58769;BME280;44536;47.474;19.056;2023-04-24T11:57:43;99467.75;;;22.22;46.95
58769;BME280;44536;47.474;19.056;2023-04-24T12:00:56;99456.12;;;22.97;47.16
58769;BME280;44536;47.474;19.056;2023-04-24T12:04:00;99450.22;;;22.37;46.46
58769;BME280;44536;47.474;19.056;2023-04-24T12:07:03;99445.97;;;22.17;47.82
58769;BME280;44536;47.474;19.056;2023-04-24T12:10:08;99442.38;;;21.05;51.49
58769;BME280;44536;47.474;19.056;2023-04-24T12:13:11;99441.12;;;21.47;49.49
58769;BME280;44536;47.474;19.056;2023-04-24T12:16:14;99441.34;;;23.50;45.92
58769;BME280;44536;47.474;19.056;2023-04-24T12:19:29;99447.44;;;23.20;46.01
58769;BME280;44536;47.474;19.056;2023-04-24T12:22:45;99442.19;;;22.24;48.01
58769;BME280;44536;47.474;19.056;2023-04-24T12:25:50;99431.69;;;22.03;47.58
58769;BME280;44536;47.474;19.056;2023-04-24T12:28:53;99426.25;;;23.17;45.69
58769;BME280;44536;47.474;19.056;2023-04-24T12:31:56;99423.03;;;24.25;43.57
58769;BME280;44536;47.474;19.056;2023-04-24T12:34:58;99420.38;;;23.88;43.96
58769;BME280;44536;47.474;19.056;2023-04-24T12:38:12;99413.44;;;24.29;43.03
58769;BME280;44536;47.474;19.056;2023-04-24T12:41:15;99406.72;;;22.14;48.09
58769;BME280;44536;47.474;19.056;2023-04-24T12:44:18;99398.59;;;21.43;50.15
58769;BME280;44536;47.474;19.056;2023-04-24T12:47:20;99409.81;;;21.00;52.89
58769;BME280;44536;47.474;19.056;2023-04-24T12:50:23;99400.75;;;20.21;52.92
58769;BME280;44536;47.474;19.056;2023-04-24T12:53:25;99403.97;;;20.03;54.85
58769;BME280;44536;47.474;19.056;2023-04-24T12:56:28;99397.94;;;19.94;56.37
58769;BME280;44536;47.474;19.056;2023-04-24T12:59:31;99395.78;;;20.17;56.39
58769;BME280;44536;47.474;19.056;2023-04-24T13:02:33;99392.69;;;19.79;56.62
58769;BME280;44536;47.474;19.056;2023-04-24T13:05:37;99392.16;;;19.56;57.80
58769;BME280;44536;47.474;19.056;2023-04-24T13:08:39;99395.50;;;18.81;60.45
58769;BME280;44536;47.474;19.056;2023-04-24T13:11:42;99397.47;;;18.51;61.33
58769;BME280;44536;47.474;19.056;2023-04-24T13:14:44;99392.38;;;18.20;63.08
58769;BME280;44536;47.474;19.056;2023-04-24T13:17:47;99399.87;;;18.25;64.49
58769;BME280;44536;47.474;19.056;2023-04-24T13:20:50;99387.81;;;18.35;66.35
58769;BME280;44536;47.474;19.056;2023-04-24T13:23:52;99394.41;;;18.54;67.31
58769;BME280;44536;47.474;19.056;2023-04-24T13:26:55;99378.31;;;17.97;68.67
58769;BME280;44536;47.474;19.056;2023-04-24T13:29:58;99384.69;;;17.81;70.16
58769;BME280;44536;47.474;19.056;2023-04-24T13:33:02;99381.72;;;17.32;69.35
58769;BME280;44536;47.474;19.056;2023-04-24T13:36:05;99376.09;;;17.12;70.23
58769;BME280;44536;47.474;19.056;2023-04-24T13:39:07;99381.31;;;16.91;70.94
58769;BME280;44536;47.474;19.056;2023-04-24T13:42:10;99393.91;;;16.82;72.01
58769;BME280;44536;47.474;19.056;2023-04-24T13:45:12;99397.63;;;16.81;72.71
58769;BME280;44536;47.474;19.056;2023-04-24T13:48:26;99393.22;;;16.65;74.72
58769;BME280;44536;47.474;19.056;2023-04-24T13:51:28;99401.38;;;16.64;73.76
58769;BME280;44536;47.474;19.056;2023-04-24T13:54:30;99396.53;;;16.67;73.81
58769;BME280;44536;47.474;19.056;2023-04-24T13:57:34;99397.97;;;16.55;79.51
58769;BME280;44536;47.474;19.056;2023-04-24T14:00:37;99398.69;;;16.49;78.33
58769;BME280;44536;47.474;19.056;2023-04-24T14:03:41;99409.28;;;16.11;74.73
58769;BME280;44536;47.474;19.056;2023-04-24T14:06:49;99418.22;;;15.96;79.73
58769;BME280;44536;47.474;19.056;2023-04-24T14:09:52;99420.66;;;15.66;82.97
58769;BME280;44536;47.474;19.056;2023-04-24T14:12:54;99423.22;;;15.35;88.03
58769;BME280;44536;47.474;19.056;2023-04-24T14:15:57;99429.13;;;14.98;93.68
58769;BME280;44536;47.474;19.056;2023-04-24T14:19:00;99419.25;;;14.66;99.46
58769;BME280;44536;47.474;19.056;2023-04-24T14:22:03;99419.50;;;14.22;100.00
58769;BME280;44536;47.474;19.056;2023-04-24T14:25:05;99425.75;;;13.97;100.00
58769;BME280;44536;47.474;19.056;2023-04-24T14:28:08;99419.31;;;13.74;100.00
58769;BME280;44536;47.474;19.056;2023-04-24T14:31:10;99422.81;;;13.74;100.00
58769;BME280;44536;47.474;19.056;2023-04-24T14:34:13;99410.09;;;13.94;100.00
58769;BME280;44536;47.474;19.056;2023-04-24T14:37:16;99413.13;;;13.99;100.00
58769;BME280;44536;47.474;19.056;2023-04-24T14:40:18;99423.81;;;14.15;100.00
58769;BME280;44536;47.474;19.056;2023-04-24T14:43:40;99419.31;;;14.24;100.00
58769;BME280;44536;47.474;19.056;2023-04-24T14:46:43;99416.81;;;14.22;100.00
58769;BME280;44536;47.474;19.056;2023-04-24T14:49:46;99418.66;;;14.22;100.00
58769;BME280;44536;47.474;19.056;2023-04-24T14:52:49;99424.63;;;14.16;100.00
58769;BME280;44536;47.474;19.056;2023-04-24T14:55:51;99420.31;;;14.15;100.00
58769;BME280;44536;47.474;19.056;2023-04-24T14:58:54;99417.97;;;14.20;100.00
58769;BME280;44536;47.474;19.056;2023-04-24T15:01:57;99429.09;;;14.07;100.00
58769;BME280;44536;47.474;19.056;2023-04-24T15:05:16;99432.09;;;14.04;100.00
58769;BME280;44536;47.474;19.056;2023-04-24T15:08:19;99413.78;;;14.01;100.00
58769;BME280;44536;47.474;19.056;2023-04-24T15:11:21;99415.47;;;14.02;100.00
58769;BME280;44536;47.474;19.056;2023-04-24T15:14:24;99413.28;;;14.06;100.00
58769;BME280;44536;47.474;19.056;2023-04-24T15:17:26;99425.12;;;14.11;100.00
58769;BME280;44536;47.474;19.056;2023-04-24T15:20:29;99420.13;;;14.08;100.00
58769;BME280;44536;47.474;19.056;2023-04-24T15:23:31;99416.63;;;14.16;100.00
58769;BME280;44536;47.474;19.056;2023-04-24T15:26:34;99415.50;;;14.27;100.00
58769;BME280;44536;47.474;19.056;2023-04-24T15:29:37;99409.50;;;14.24;100.00
58769;BME280;44536;47.474;19.056;2023-04-24T15:32:39;99412.31;;;14.23;100.00
58769;BME280;44536;47.474;19.056;2023-04-24T15:35:42;99417.53;;;14.33;100.00
58769;BME280;44536;47.474;19.056;2023-04-24T15:38:44;99420.06;;;14.42;100.00
58769;BME280;44536;47.474;19.056;2023-04-24T15:41:47;99422.56;;;14.44;100.00
58769;BME280;44536;47.474;19.056;2023-04-24T15:44:49;99421.53;;;14.37;100.00
58769;BME280;44536;47.474;19.056;2023-04-24T15:47:51;99422.50;;;14.28;100.00
58769;BME280;44536;47.474;19.056;2023-04-24T15:50:54;99423.97;;;14.14;100.00
58769;BME280;44536;47.474;19.056;2023-04-24T15:53:57;99422.09;;;14.06;100.00
58769;BME280;44536;47.474;19.056;2023-04-24T15:56:59;99426.44;;;13.99;100.00
58769;BME280;44536;47.474;19.056;2023-04-24T16:00:04;99425.44;;;14.00;100.00
58769;BME280;44536;47.474;19.056;2023-04-24T16:03:12;99427.56;;;13.88;100.00